Pinehurst, California
Current Conditions -  °F | °C
As of 11:55 AM on Tuesday 21 Oct 2014 (Local Time) from KVIS Reporting Station
Clear Clear  
Wind Chill: 66°   Ceiling: Unl
Heat Index: 66°   Visibility: 10mi
Dew Point: 52°   Wind: 6mph
Humidity: 60%   Direction: 330°NNW
Pressure: 30.06"   Gusts: NA
Location:  36.6891°N, 119.03°W
Report Text: KVIS 211855Z 33005KT 10SM CLR 19/11 A3006 RMK AO1
Loading
Personal Weather Stations






























Interactive Weather Map
Tropical Storm Tracking
New forecast layout! Learn more

10-Day Weather Forecast

Advertisements
Track Severe Weather on mobile